Time;durP1;ratioP1;P1;durP2;ratioP2;P2;SDS_P1;SDS_P2;PMS_P1;PMS_P2;Temp;Humidity;BMP_temperature;BMP_pressure;BME280_temperature;BME280_humidity;BME280_pressure;Samples;Min_cycle;Max_cycle;Signal;HPM_P1;HPM_P2
2021/01/28 00:00:16;;;;;;;54.92;26.02;;;22.20;29.00;;;;;;6151178;28;83475;-63
2021/01/28 00:03:16;;;;;;;56.38;24.77;;;22.20;29.20;;;;;;6154282;28;84098;-62
2021/01/28 00:06:17;;;;;;;60.05;26.73;;;22.20;29.10;;;;;;6163773;28;83275;-63
2021/01/28 00:09:18;;;;;;;54.72;26.48;;;22.10;29.00;;;;;;6154137;28;92822;-63
2021/01/28 00:12:18;;;;;;;54.38;26.67;;;22.20;29.60;;;;;;6172082;27;83190;-63
2021/01/28 00:15:19;;;;;;;55.78;26.75;;;22.20;29.10;;;;;;6169264;28;83153;-62
2021/01/28 00:18:19;;;;;;;58.28;26.63;;;22.20;29.20;;;;;;6154191;27;82875;-62
2021/01/28 00:21:20;;;;;;;52.72;26.15;;;22.10;29.10;;;;;;6172284;28;83326;-63
2021/01/28 00:24:20;;;;;;;57.88;26.65;;;22.10;29.10;;;;;;6166694;28;83427;-63
2021/01/28 00:27:21;;;;;;;59.15;27.05;;;22.10;29.10;;;;;;6165049;28;83656;-63
2021/01/28 00:30:22;;;;;;;60.25;27.33;;;22.10;29.00;;;;;;6170233;28;83180;-63
2021/01/28 00:33:22;;;;;;;60.40;26.75;;;22.10;29.00;;;;;;6159551;28;84332;-63
2021/01/28 00:36:23;;;;;;;56.72;26.60;;;22.10;29.00;;;;;;6146527;28;89486;-63
2021/01/28 00:39:23;;;;;;;63.42;29.10;;;22.10;29.10;;;;;;6169913;28;84172;-63
2021/01/28 00:42:24;;;;;;;58.78;28.45;;;22.10;29.10;;;;;;6166553;28;83458;-62
2021/01/28 00:45:24;;;;;;;60.30;26.55;;;22.10;29.00;;;;;;6164243;28;85341;-63
2021/01/28 00:48:27;;;;;;;62.80;27.23;;;22.10;29.00;;;;;;6154407;28;83623;-63
2021/01/28 00:51:27;;;;;;;57.08;26.80;;;22.00;28.90;;;;;;6172505;28;83379;-63
2021/01/28 00:54:28;;;;;;;59.75;26.17;;;22.10;29.00;;;;;;6173486;27;83965;-63
2021/01/28 00:57:28;;;;;;;59.72;25.50;;;22.10;29.00;;;;;;6176272;28;86064;-64
2021/01/28 01:00:29;;;;;;;56.90;26.50;;;22.00;28.90;;;;;;6176671;27;85945;-63
2021/01/28 01:03:30;;;;;;;51.15;23.88;;;22.00;29.00;;;;;;6175794;28;86499;-63
2021/01/28 01:06:30;;;;;;;51.88;23.92;;;22.00;28.80;;;;;;6166752;28;86335;-63
2021/01/28 01:09:31;;;;;;;55.63;24.52;;;22.00;28.90;;;;;;6176880;28;85134;-63
2021/01/28 01:12:32;;;;;;;49.17;23.17;;;22.00;28.90;;;;;;6175219;28;84787;-62
2021/01/28 01:15:32;;;;;;;47.47;22.73;;;22.00;28.90;;;;;;6168776;28;85794;-64
2021/01/28 01:18:33;;;;;;;47.13;22.90;;;22.00;28.80;;;;;;6164692;28;84844;-63
2021/01/28 01:21:33;;;;;;;47.35;22.02;;;22.00;28.80;;;;;;6166518;28;86051;-63
2021/01/28 01:24:46;;;;;;;44.85;20.58;;;22.00;28.80;;;;;;6174516;28;85956;-63
2021/01/28 01:27:47;;;;;;;49.33;21.88;;;22.00;28.90;;;;;;6177055;27;83380;-63
2021/01/28 01:31:07;;;;;;;42.05;19.70;;;22.00;28.80;;;;;;6158428;28;83721;-64
2021/01/28 01:34:08;;;;;;;44.45;21.17;;;21.90;28.80;;;;;;6146187;28;84531;-63
2021/01/28 01:37:09;;;;;;;46.42;20.05;;;21.90;28.80;;;;;;6161948;28;84818;-63
2021/01/28 01:40:14;;;;;;;49.97;21.15;;;22.00;28.80;;;;;;6174521;28;85479;-63
2021/01/28 01:43:17;;;;;;;40.17;18.75;;;22.00;28.70;;;;;;6175166;28;85370;-63
2021/01/28 01:46:17;;;;;;;42.30;19.52;;;21.90;28.80;;;;;;6173977;28;83997;-63
2021/01/28 01:49:18;;;;;;;38.80;17.67;;;22.00;28.80;;;;;;6159729;28;85817;-63
2021/01/28 01:52:18;;;;;;;40.80;18.17;;;21.90;28.70;;;;;;6152678;28;85783;-63
2021/01/28 01:55:20;;;;;;;39.83;18.45;;;21.90;28.70;;;;;;6161368;28;86177;-63
2021/01/28 01:58:33;;;;;;;39.65;18.80;;;22.00;28.70;;;;;;6146024;28;85780;-63
2021/01/28 02:01:52;;;;;;;41.42;18.70;;;21.90;28.70;;;;;;6144515;28;83793;-64
2021/01/28 02:05:11;;;;;;;40.05;17.92;;;21.90;28.70;;;;;;6171147;28;83095;-63
2021/01/28 02:08:44;;;;;;;39.17;18.00;;;21.90;28.70;;;;;;6150445;28;87317;-64
2021/01/28 02:12:13;;;;;;;36.63;17.60;;;21.90;28.80;;;;;;6170906;28;83287;-63
2021/01/28 02:15:37;;;;;;;37.83;17.25;;;21.90;28.70;;;;;;6163405;28;86418;-63
2021/01/28 02:18:38;;;;;;;33.22;16.23;;;21.90;28.90;;;;;;6145817;28;85861;-63
2021/01/28 02:21:45;;;;;;;34.88;16.30;;;21.90;28.80;;;;;;6138249;28;86276;-63
2021/01/28 02:24:46;;;;;;;35.38;16.90;;;21.90;28.80;;;;;;6153687;28;85968;-63
2021/01/28 02:27:47;;;;;;;30.45;16.00;;;21.90;28.70;;;;;;6154662;28;85313;-62
2021/01/28 02:31:01;;;;;;;32.80;16.02;;;21.80;28.70;;;;;;6163674;28;85671;-63
2021/01/28 02:34:04;;;;;;;34.50;15.68;;;21.90;28.80;;;;;;6154672;27;83551;-62
2021/01/28 02:37:18;;;;;;;32.78;15.45;;;21.80;28.60;;;;;;6173645;28;86023;-62
2021/01/28 02:40:32;;;;;;;30.77;14.35;;;21.80;28.70;;;;;;6174619;28;84510;-62
2021/01/28 02:44:02;;;;;;;32.55;15.30;;;21.80;28.70;;;;;;6149904;28;83693;-63
2021/01/28 02:47:23;;;;;;;32.08;14.18;;;21.80;28.60;;;;;;6165758;28;84180;-63
2021/01/28 02:50:44;;;;;;;29.63;14.63;;;21.90;28.70;;;;;;6146124;28;83372;-63
2021/01/28 02:53:45;;;;;;;29.13;14.05;;;21.80;28.70;;;;;;6168382;28;86349;-63
2021/01/28 02:56:48;;;;;;;28.30;13.82;;;21.80;28.60;;;;;;6166174;28;85857;-63
2021/01/28 02:59:48;;;;;;;31.15;14.13;;;21.80;28.50;;;;;;6174803;27;83679;-64
2021/01/28 03:02:49;;;;;;;29.02;13.80;;;21.80;28.50;;;;;;6149871;28;85361;-64
2021/01/28 03:05:50;;;;;;;27.80;13.05;;;21.80;28.50;;;;;;6164973;27;85090;-63
2021/01/28 03:08:51;;;;;;;28.77;12.38;;;21.80;28.40;;;;;;6148356;28;84161;-64
2021/01/28 03:12:12;;;;;;;26.83;13.35;;;21.80;28.40;;;;;;6173441;27;83854;-63
2021/01/28 03:15:32;;;;;;;30.83;14.38;;;21.80;28.50;;;;;;6161081;28;83004;-63
2021/01/28 03:18:33;;;;;;;27.00;13.13;;;21.80;28.40;;;;;;6157006;27;83971;-63
2021/01/28 03:21:39;;;;;;;30.43;14.50;;;21.80;28.50;;;;;;6173190;27;84223;-63
2021/01/28 03:25:02;;;;;;;27.23;12.50;;;21.70;28.40;;;;;;6171776;28;83759;-64
2021/01/28 03:28:02;;;;;;;32.65;13.48;;;21.80;28.50;;;;;;6161670;27;85909;-63
2021/01/28 03:31:04;;;;;;;29.25;14.18;;;21.70;28.40;;;;;;6141490;28;86712;-63
2021/01/28 03:34:05;;;;;;;30.95;13.52;;;21.70;28.40;;;;;;6152423;27;83703;-63
2021/01/28 03:37:05;;;;;;;26.95;12.85;;;21.70;28.40;;;;;;6159042;28;83105;-62
2021/01/28 03:40:15;;;;;;;26.70;12.35;;;21.70;28.40;;;;;;6148292;28;84376;-62
2021/01/28 03:43:16;;;;;;;24.98;12.02;;;21.70;28.40;;;;;;6162612;28;85032;-63
2021/01/28 03:46:17;;;;;;;25.70;12.32;;;21.70;28.40;;;;;;6153400;28;83409;-63
2021/01/28 03:49:22;;;;;;;26.17;12.65;;;21.70;28.40;;;;;;6142236;27;85371;-63
2021/01/28 03:52:30;;;;;;;28.48;13.65;;;21.70;28.50;;;;;;6162332;28;84008;-62
2021/01/28 03:55:50;;;;;;;26.90;12.85;;;21.70;28.40;;;;;;6145091;28;85314;-62
2021/01/28 03:58:51;;;;;;;26.42;12.30;;;22.30;28.70;;;;;;6173484;28;86131;-62
2021/01/28 04:02:10;;;;;;;25.85;12.60;;;21.70;28.60;;;;;;6140123;28;82791;-62
2021/01/28 04:05:29;;;;;;;24.77;11.20;;;21.70;28.50;;;;;;6173598;28;86693;-62
2021/01/28 04:08:48;;;;;;;27.45;12.00;;;21.70;28.70;;;;;;6129332;28;84744;-62
2021/01/28 04:12:07;;;;;;;25.83;12.57;;;21.70;28.70;;;;;;6172411;28;83332;-62
2021/01/28 04:15:30;;;;;;;23.92;12.13;;;21.60;28.70;;;;;;6144017;28;89070;-62
2021/01/28 04:18:31;;;;;;;24.63;11.75;;;21.70;28.80;;;;;;6165211;28;83656;-62
2021/01/28 04:21:46;;;;;;;23.07;11.60;;;21.70;29.10;;;;;;6168893;27;85733;-62
2021/01/28 04:24:47;;;;;;;22.02;10.88;;;21.70;29.20;;;;;;6148839;28;83941;-62
2021/01/28 04:27:48;;;;;;;22.42;11.45;;;21.80;28.90;;;;;;6144519;28;82845;-62
2021/01/28 04:31:06;;;;;;;20.30;10.10;;;21.80;28.40;;;;;;6167168;28;84223;-62
2021/01/28 04:34:07;;;;;;;19.80;8.82;;;21.90;29.40;;;;;;6149471;28;85240;-62
2021/01/28 04:37:08;;;;;;;22.25;10.50;;;21.90;30.00;;;;;;6164360;27;82861;-62
2021/01/28 04:40:26;;;;;;;19.17;9.27;;;21.90;29.90;;;;;;6167710;28;83459;-62
2021/01/28 04:43:28;;;;;;;21.85;9.90;;;21.90;29.50;;;;;;6163847;28;85514;-64
2021/01/28 04:46:49;;;;;;;19.90;10.50;;;22.00;29.40;;;;;;6156883;28;83084;-64
2021/01/28 04:50:08;;;;;;;20.85;10.32;;;21.90;29.50;;;;;;6167904;28;83520;-64
2021/01/28 04:53:08;;;;;;;19.75;9.18;;;22.00;29.40;;;;;;6157969;28;83396;-64
2021/01/28 04:56:27;;;;;;;21.42;9.55;;;22.00;29.50;;;;;;6172306;28;82733;-64
2021/01/28 04:59:50;;;;;;;16.77;8.82;;;22.00;29.10;;;;;;6159924;28;81249;-64
2021/01/28 05:02:51;;;;;;;17.80;9.00;;;22.00;28.90;;;;;;6162563;28;82679;-64
2021/01/28 05:06:06;;;;;;;16.85;8.40;;;22.10;28.90;;;;;;6156492;28;83132;-63
2021/01/28 05:09:15;;;;;;;17.08;8.18;;;22.10;28.60;;;;;;6178127;28;82622;-66
2021/01/28 05:12:42;;;;;;;;;;;22.20;29.10;;;;;;6168465;28;84890;-64
2021/01/28 05:15:55;;;;;;;17.55;9.18;;;22.20;28.50;;;;;;6176588;28;82201;-62
2021/01/28 05:19:19;;;;;;;22.33;9.77;;;22.20;28.60;;;;;;6154001;27;80829;-62
2021/01/28 05:22:38;;;;;;;21.52;8.77;;;22.20;29.20;;;;;;6150491;28;83918;-64
2021/01/28 05:26:00;;;;;;;18.67;9.10;;;22.30;31.10;;;;;;6154749;28;83469;-62
2021/01/28 05:29:24;;;;;;;16.67;9.02;;;22.30;29.00;;;;;;6170585;28;83301;-62
2021/01/28 05:32:38;;;;;;;17.50;8.77;;;22.30;29.50;;;;;;6179979;28;82631;-62
2021/01/28 05:36:08;;;;;;;21.48;9.00;;;22.30;29.50;;;;;;6171576;28;80807;-63
2021/01/28 05:39:15;;;;;;;16.48;8.65;;;22.40;29.50;;;;;;6173812;28;82829;-63
2021/01/28 05:42:16;;;;;;;18.35;8.20;;;22.40;29.60;;;;;;6183377;28;82134;-62
2021/01/28 05:45:19;;;;;;;18.50;8.80;;;22.40;29.60;;;;;;6155873;28;83037;-62
2021/01/28 05:48:22;;;;;;;18.50;9.43;;;22.50;29.10;;;;;;6156901;27;86240;-63
2021/01/28 05:51:34;;;;;;;18.13;9.73;;;22.50;29.10;;;;;;6179738;28;83145;-63
2021/01/28 05:54:34;;;;;;;19.20;9.10;;;22.50;29.00;;;;;;6160139;28;83429;-62
2021/01/28 05:57:55;;;;;;;21.30;8.90;;;22.60;29.10;;;;;;6157329;28;81209;-64
2021/01/28 06:01:00;;;;;;;19.08;9.57;;;22.60;29.80;;;;;;6157899;28;82863;-63
2021/01/28 06:04:01;;;;;;;17.92;9.10;;;22.60;29.10;;;;;;6184463;27;81685;-61
2021/01/28 06:07:02;;;;;;;19.00;9.60;;;22.50;29.20;;;;;;6173033;28;80793;-62
2021/01/28 06:10:23;;;;;;;17.98;9.70;;;22.70;29.20;;;;;;6155258;28;80263;-62
2021/01/28 06:14:01;;;;;;;21.42;10.05;;;22.70;29.50;;;;;;6161138;28;80643;-62
2021/01/28 06:17:35;;;;;;;22.23;10.18;;;22.80;29.90;;;;;;6156626;28;83394;-62
2021/01/28 06:21:11;;;;;;;24.60;11.27;;;22.70;29.80;;;;;;6176743;28;83807;-62
2021/01/28 06:24:25;;;;;;;20.98;11.23;;;22.70;31.10;;;;;;6177619;27;90088;-62
2021/01/28 06:27:25;;;;;;;20.73;10.13;;;22.60;30.30;;;;;;6182449;27;86068;-62
2021/01/28 06:30:26;;;;;;;21.70;10.23;;;22.70;30.60;;;;;;6175833;28;85246;-63
2021/01/28 06:33:35;;;;;;;20.80;11.00;;;22.70;30.70;;;;;;6166833;28;85634;-63
2021/01/28 06:36:58;;;;;;;18.52;10.23;;;22.70;30.90;;;;;;6153821;28;83409;-62
2021/01/28 06:40:34;;;;;;;20.30;9.90;;;22.60;30.50;;;;;;6158706;28;83805;-62
2021/01/28 06:43:53;;;;;;;19.70;10.90;;;22.60;30.20;;;;;;6164220;27;82560;-63
2021/01/28 06:47:12;;;;;;;25.08;10.98;;;22.60;30.50;;;;;;6168583;28;82945;-62
2021/01/28 06:50:31;;;;;;;19.67;10.07;;;22.60;30.10;;;;;;6179860;27;83249;-62
2021/01/28 06:53:31;;;;;;;24.83;10.15;;;22.50;30.70;;;;;;6151716;28;85807;-63
2021/01/28 06:56:51;;;;;;;22.02;10.25;;;22.60;30.30;;;;;;6178072;27;83044;-62
2021/01/28 06:59:51;;;;;;;22.63;10.43;;;22.50;30.00;;;;;;6177619;28;84047;-63
2021/01/28 07:02:52;;;;;;;21.40;9.68;;;22.60;30.00;;;;;;6173712;28;85485;-61
2021/01/28 07:05:58;;;;;;;20.92;10.07;;;22.60;30.00;;;;;;6179502;28;85970;-61
2021/01/28 07:09:03;;;;;;;18.73;10.30;;;22.50;29.70;;;;;;6148662;28;84364;-61
2021/01/28 07:12:11;;;;;;;21.63;10.13;;;22.60;29.30;;;;;;6175744;28;85450;-63
2021/01/28 07:15:35;;;;;;;24.15;10.20;;;22.60;29.40;;;;;;6169248;28;88363;-63
2021/01/28 07:18:50;;;;;;;16.33;8.45;;;22.60;29.50;;;;;;6151072;27;85342;-64
2021/01/28 07:21:50;;;;;;;18.50;10.27;;;22.60;29.10;;;;;;6173058;28;82838;-63
2021/01/28 07:24:52;;;;;;;18.25;9.90;;;22.70;29.00;;;;;;6155080;28;83718;-63
2021/01/28 07:27:53;;;;;;;22.00;9.25;;;22.70;29.40;;;;;;6176953;28;82798;-66
2021/01/28 07:30:54;;;;;;;19.67;9.50;;;22.70;29.20;;;;;;6181219;28;80831;-66
2021/01/28 07:33:54;;;;;;;19.25;9.68;;;22.70;28.70;;;;;;6171382;28;80472;-64
2021/01/28 07:37:19;;;;;;;22.10;9.45;;;22.70;28.50;;;;;;6176787;28;89611;-66
2021/01/28 07:40:38;;;;;;;18.45;9.07;;;22.80;30.00;;;;;;6177365;28;80798;-66
2021/01/28 07:43:58;;;;;;;19.50;10.10;;;22.80;28.40;;;;;;6170116;28;80700;-66
2021/01/28 07:47:14;;;;;;;18.23;9.32;;;22.80;28.00;;;;;;6173713;28;83522;-67
2021/01/28 07:50:15;;;;;;;19.33;10.45;;;22.80;27.70;;;;;;6183056;28;83988;-66
2021/01/28 07:53:29;;;;;;;18.40;10.18;;;22.80;27.50;;;;;;6156128;28;84680;-65
2021/01/28 07:56:30;;;;;;;20.42;9.65;;;22.80;27.20;;;;;;6173540;28;83570;-65
2021/01/28 07:59:30;;;;;;;21.27;9.63;;;22.90;26.90;;;;;;6178647;28;83555;-66
2021/01/28 08:02:31;;;;;;;17.88;9.40;;;22.90;27.00;;;;;;6176954;27;80496;-65
2021/01/28 08:05:31;;;;;;;16.02;8.73;;;22.90;26.70;;;;;;6153756;27;83292;-65
2021/01/28 08:08:32;;;;;;;17.92;9.60;;;22.90;26.50;;;;;;6158689;28;81572;-65
2021/01/28 08:11:32;;;;;;;19.83;10.05;;;23.00;26.50;;;;;;6162079;28;80630;-65
2021/01/28 08:14:33;;;;;;;18.55;11.23;;;23.00;26.20;;;;;;6170121;28;83518;-66
2021/01/28 08:17:34;;;;;;;20.60;10.65;;;23.10;27.00;;;;;;6162735;28;83321;-66
2021/01/28 08:20:34;;;;;;;16.33;9.55;;;23.10;26.40;;;;;;6180670;27;83157;-65
2021/01/28 08:23:35;;;;;;;18.00;10.57;;;23.10;26.20;;;;;;6176748;28;82105;-65
2021/01/28 08:26:38;;;;;;;20.27;10.02;;;23.10;26.30;;;;;;6149134;28;82924;-66
2021/01/28 08:29:39;;;;;;;19.02;9.55;;;23.10;26.30;;;;;;6173019;28;83664;-65
2021/01/28 08:32:39;;;;;;;17.17;9.40;;;23.20;26.60;;;;;;6173822;27;84298;-65
2021/01/28 08:35:40;;;;;;;14.98;8.95;;;23.30;26.60;;;;;;6173452;27;81868;-63
2021/01/28 08:38:41;;;;;;;15.20;8.85;;;23.30;26.90;;;;;;6177920;28;80907;-63
2021/01/28 08:41:41;;;;;;;17.98;9.15;;;23.40;27.60;;;;;;6178428;27;81211;-66
2021/01/28 08:44:42;;;;;;;19.40;9.45;;;23.40;27.10;;;;;;6149831;28;81407;-63
2021/01/28 08:47:42;;;;;;;18.25;9.73;;;23.50;26.90;;;;;;6147380;28;80260;-63
2021/01/28 08:50:43;;;;;;;21.15;8.90;;;23.50;26.90;;;;;;6170365;28;80717;-64
2021/01/28 08:53:43;;;;;;;16.42;8.52;;;23.50;26.70;;;;;;6157836;28;80522;-64
2021/01/28 08:56:44;;;;;;;14.98;8.43;;;23.50;26.50;;;;;;6171544;28;83586;-63
2021/01/28 08:59:44;;;;;;;17.83;8.55;;;23.60;26.40;;;;;;6150716;28;82496;-65
2021/01/28 09:02:46;;;;;;;16.70;8.68;;;23.60;27.00;;;;;;6149973;28;81120;-65
2021/01/28 09:05:46;;;;;;;18.98;8.50;;;23.70;26.60;;;;;;6171777;28;80904;-66
2021/01/28 09:08:47;;;;;;;20.25;9.40;;;23.80;27.00;;;;;;6178316;28;80949;-67
2021/01/28 09:11:47;;;;;;;16.48;8.48;;;23.90;26.80;;;;;;6148085;27;80441;-65
2021/01/28 09:14:48;;;;;;;17.15;8.65;;;23.90;26.80;;;;;;6142806;28;81282;-66
2021/01/28 09:17:49;;;;;;;21.13;9.25;;;23.90;26.70;;;;;;6155021;28;83256;-65
2021/01/28 09:20:49;;;;;;;19.00;8.32;;;24.00;27.00;;;;;;6173663;28;80926;-65
2021/01/28 09:23:50;;;;;;;16.27;8.48;;;24.00;26.80;;;;;;6178736;28;82510;-66
2021/01/28 09:26:50;;;;;;;146.15;50.25;;;24.00;26.80;;;;;;6176966;27;80885;-66
2021/01/28 09:29:51;;;;;;;317.65;109.03;;;24.00;27.00;;;;;;6175118;27;83328;-66
2021/01/28 09:32:51;;;;;;;255.77;91.32;;;24.10;27.50;;;;;;6174670;28;85912;-63
2021/01/28 09:35:52;;;;;;;197.15;74.97;;;24.10;27.50;;;;;;6183185;27;85934;-63
2021/01/28 09:38:52;;;;;;;183.02;65.35;;;24.20;27.50;;;;;;6179495;28;83351;-63
2021/01/28 09:41:53;;;;;;;161.27;57.63;;;24.20;27.50;;;;;;6180987;27;83938;-63
2021/01/28 09:44:53;;;;;;;149.38;54.17;;;24.20;27.60;;;;;;6174859;28;83603;-63
2021/01/28 09:47:54;;;;;;;133.82;47.20;;;24.20;27.80;;;;;;6176143;27;84493;-63
2021/01/28 09:50:55;;;;;;;119.78;44.65;;;24.30;27.30;;;;;;6171590;28;83278;-63
2021/01/28 09:53:55;;;;;;;117.00;39.80;;;24.30;27.60;;;;;;6159587;28;82861;-63
2021/01/28 09:56:56;;;;;;;108.53;38.28;;;24.30;28.60;;;;;;6161000;28;84422;-63
2021/01/28 09:59:59;;;;;;;85.97;33.75;;;24.30;28.10;;;;;;6155873;28;83752;-64
2021/01/28 10:03:00;;;;;;;88.90;32.08;;;24.40;28.20;;;;;;6171939;28;83967;-65
2021/01/28 10:06:00;;;;;;;74.30;28.52;;;24.40;28.30;;;;;;6155261;28;83119;-65
2021/01/28 10:09:01;;;;;;;75.80;28.63;;;24.40;28.80;;;;;;6174513;28;83497;-64
2021/01/28 10:12:01;;;;;;;61.45;25.20;;;24.40;28.30;;;;;;6150732;28;83310;-64
2021/01/28 10:15:02;;;;;;;60.53;24.73;;;24.40;27.90;;;;;;6169739;28;86771;-64
2021/01/28 10:18:02;;;;;;;60.60;23.45;;;24.40;27.80;;;;;;6151930;28;83027;-64
2021/01/28 10:21:03;;;;;;;49.67;21.05;;;24.50;28.60;;;;;;6176322;27;84187;-64
2021/01/28 10:24:03;;;;;;;45.60;20.13;;;24.50;29.30;;;;;;6152239;28;83368;-66
2021/01/28 10:27:04;;;;;;;46.10;18.48;;;24.50;28.10;;;;;;6174754;27;83835;-66
2021/01/28 10:30:05;;;;;;;43.45;18.58;;;24.50;29.30;;;;;;6169536;28;83591;-68
2021/01/28 10:33:05;;;;;;;41.22;17.13;;;24.30;30.10;;;;;;6175628;28;84277;-68
2021/01/28 10:36:06;;;;;;;40.13;15.82;;;24.20;29.60;;;;;;6153825;27;84436;-64
2021/01/28 10:39:06;;;;;;;39.65;17.02;;;24.30;30.00;;;;;;6163196;28;83515;-64
2021/01/28 10:42:07;;;;;;;40.58;16.08;;;24.20;29.90;;;;;;6170779;28;85745;-64
2021/01/28 10:45:07;;;;;;;37.38;14.52;;;24.20;29.70;;;;;;6181276;28;83195;-63
2021/01/28 10:48:08;;;;;;;31.67;13.18;;;24.10;29.90;;;;;;6154144;28;85203;-63
2021/01/28 10:51:08;;;;;;;29.35;13.70;;;24.10;30.10;;;;;;6143709;28;83452;-63
2021/01/28 10:54:09;;;;;;;25.92;11.50;;;24.10;29.80;;;;;;6174357;28;84785;-63
2021/01/28 10:57:11;;;;;;;22.65;10.85;;;24.20;29.70;;;;;;6171431;28;84123;-64
2021/01/28 11:00:11;;;;;;;25.85;11.15;;;24.20;30.00;;;;;;6180355;28;84083;-64
2021/01/28 11:03:12;;;;;;;24.67;9.70;;;24.10;29.60;;;;;;6182172;28;84185;-65
2021/01/28 11:06:12;;;;;;;18.23;9.07;;;24.20;29.10;;;;;;6177783;28;83086;-63
2021/01/28 11:09:13;;;;;;;15.57;7.78;;;24.30;29.40;;;;;;6154882;28;80642;-63
2021/01/28 11:12:13;;;;;;;21.13;8.75;;;24.30;29.70;;;;;;6176310;27;80970;-63
2021/01/28 11:15:14;;;;;;;19.65;8.30;;;24.20;29.50;;;;;;6169007;28;86819;-63
2021/01/28 11:18:14;;;;;;;18.70;8.45;;;24.20;29.60;;;;;;6180051;28;80956;-64
2021/01/28 11:21:15;;;;;;;15.77;7.53;;;24.30;30.00;;;;;;6168784;28;80807;-65
2021/01/28 11:24:16;;;;;;;20.35;8.77;;;24.20;29.80;;;;;;6157635;28;82096;-64
2021/01/28 11:27:16;;;;;;;17.98;7.60;;;24.20;29.80;;;;;;6154078;28;80827;-64
2021/01/28 11:30:17;;;;;;;15.45;7.78;;;24.10;29.70;;;;;;6179096;27;81374;-65
2021/01/28 11:33:17;;;;;;;18.50;7.47;;;24.10;29.50;;;;;;6176172;28;81546;-65
2021/01/28 11:36:18;;;;;;;16.73;7.10;;;24.00;29.50;;;;;;6177387;27;80271;-64
2021/01/28 11:39:19;;;;;;;18.20;7.53;;;24.00;29.60;;;;;;6176759;28;80742;-67
2021/01/28 11:42:19;;;;;;;12.63;6.47;;;24.00;29.50;;;;;;6178129;28;84846;-66
2021/01/28 11:45:20;;;;;;;17.35;6.43;;;24.10;29.20;;;;;;6153399;28;88816;-67
2021/01/28 11:48:20;;;;;;;13.35;6.97;;;24.10;28.80;;;;;;6157032;28;81047;-64
2021/01/28 11:51:21;;;;;;;15.45;6.38;;;24.10;28.90;;;;;;6178107;28;80930;-65
2021/01/28 11:54:21;;;;;;;10.95;6.07;;;24.20;28.40;;;;;;6186858;28;80594;-65
2021/01/28 11:57:22;;;;;;;10.57;6.03;;;24.20;28.00;;;;;;6176574;27;80970;-66
2021/01/28 12:00:23;;;;;;;10.80;5.53;;;24.30;28.00;;;;;;6177308;28;80901;-63
2021/01/28 12:03:23;;;;;;;12.75;5.75;;;24.30;28.20;;;;;;6176181;28;80619;-66
2021/01/28 12:06:24;;;;;;;12.55;5.93;;;24.30;28.30;;;;;;6153218;28;80688;-65
2021/01/28 12:09:24;;;;;;;11.50;6.20;;;24.30;29.50;;;;;;6178807;27;80405;-66
2021/01/28 12:12:25;;;;;;;13.80;6.38;;;24.20;29.70;;;;;;6176011;28;80576;-67
2021/01/28 12:15:25;;;;;;;25.50;6.60;;;24.20;30.10;;;;;;6169496;28;80585;-66
2021/01/28 12:18:26;;;;;;;16.33;6.50;;;24.30;30.20;;;;;;6177884;27;80583;-67
2021/01/28 12:21:27;;;;;;;10.13;5.43;;;24.20;30.40;;;;;;6166858;27;81838;-66
2021/01/28 12:24:32;;;;;;;12.07;6.13;;;24.20;30.10;;;;;;6176019;28;80653;-66
2021/01/28 12:27:32;;;;;;;12.20;6.10;;;24.20;30.50;;;;;;6175237;28;81356;-66
2021/01/28 12:30:33;;;;;;;16.85;6.18;;;24.20;29.90;;;;;;6153475;28;81325;-66
2021/01/28 12:33:34;;;;;;;12.60;5.82;;;24.20;30.30;;;;;;6175825;28;82522;-68
2021/01/28 12:36:35;;;;;;;10.45;5.43;;;24.20;29.40;;;;;;6176222;28;80839;-68
2021/01/28 12:39:40;;;;;;;10.02;5.43;;;24.10;28.90;;;;;;6176110;28;81021;-68
2021/01/28 12:42:40;;;;;;;10.13;5.00;;;24.00;28.90;;;;;;6171210;27;82468;-68
2021/01/28 12:45:41;;;;;;;9.73;5.07;;;24.00;28.60;;;;;;6152614;28;80782;-68
2021/01/28 12:48:41;;;;;;;17.88;5.65;;;24.00;28.90;;;;;;6156271;28;82664;-69
2021/01/28 12:51:42;;;;;;;12.80;5.25;;;24.00;28.80;;;;;;6179621;27;83724;-67
2021/01/28 12:54:42;;;;;;;10.75;5.07;;;24.00;28.50;;;;;;6157574;28;81167;-66
2021/01/28 12:57:43;;;;;;;9.90;5.05;;;23.90;28.40;;;;;;6158747;28;80758;-67
2021/01/28 13:00:43;;;;;;;8.50;5.03;;;23.90;28.40;;;;;;6172045;27;80869;-67
2021/01/28 13:03:44;;;;;;;9.48;4.72;;;23.90;28.50;;;;;;6155233;27;82975;-67
2021/01/28 13:06:45;;;;;;;11.63;5.05;;;23.80;28.40;;;;;;6182153;28;80586;-66
2021/01/28 13:09:45;;;;;;;10.52;5.32;;;23.80;28.70;;;;;;6156308;28;81640;-66
2021/01/28 13:12:46;;;;;;;10.40;5.07;;;23.80;28.90;;;;;;6176700;28;80741;-65
2021/01/28 13:15:46;;;;;;;10.05;5.55;;;23.80;29.00;;;;;;6155376;28;80983;-66
2021/01/28 13:18:47;;;;;;;13.55;6.40;;;23.80;29.40;;;;;;6159708;28;80803;-65
2021/01/28 13:21:47;;;;;;;12.30;6.97;;;23.80;29.60;;;;;;6176076;28;82411;-67
2021/01/28 13:24:48;;;;;;;12.77;7.97;;;23.70;30.00;;;;;;6181111;27;80696;-67
2021/01/28 13:27:48;;;;;;;13.57;7.97;;;23.80;30.10;;;;;;6183676;28;81496;-67
2021/01/28 13:30:49;;;;;;;17.33;8.88;;;23.70;30.60;;;;;;6161759;27;81476;-66
2021/01/28 13:33:49;;;;;;;16.20;9.18;;;23.70;30.70;;;;;;6158249;28;80972;-66
2021/01/28 13:36:50;;;;;;;12.63;7.85;;;23.70;30.80;;;;;;6154604;27;81112;-67
2021/01/28 13:39:51;;;;;;;13.05;7.85;;;23.60;30.40;;;;;;6180967;28;80953;-63
2021/01/28 13:42:51;;;;;;;12.23;7.63;;;23.70;30.40;;;;;;6185281;27;80265;-65
2021/01/28 13:45:52;;;;;;;13.70;7.13;;;23.60;30.80;;;;;;6178697;28;82647;-62
2021/01/28 13:48:52;;;;;;;9.88;6.15;;;23.60;31.30;;;;;;6178504;27;81411;-63
2021/01/28 13:51:53;;;;;;;13.05;7.47;;;23.60;32.20;;;;;;6180980;28;82894;-64
2021/01/28 13:54:53;;;;;;;12.88;7.07;;;23.70;31.60;;;;;;6179419;27;80312;-63
2021/01/28 13:57:54;;;;;;;11.65;6.05;;;23.70;32.60;;;;;;6160230;28;80707;-63
2021/01/28 14:00:55;;;;;;;13.38;6.93;;;23.70;31.70;;;;;;6172908;28;80567;-64
2021/01/28 14:03:55;;;;;;;12.48;6.53;;;23.70;31.70;;;;;;6177566;28;83136;-63
2021/01/28 14:06:56;;;;;;;12.23;5.40;;;23.70;31.00;;;;;;6177479;28;80621;-63
2021/01/28 14:09:56;;;;;;;9.48;5.50;;;23.80;31.20;;;;;;6178427;28;80544;-65
2021/01/28 14:12:57;;;;;;;10.43;5.47;;;23.80;31.10;;;;;;6169939;28;80923;-63
2021/01/28 14:15:57;;;;;;;15.32;5.13;;;23.80;31.90;;;;;;6171084;28;80524;-64
2021/01/28 14:18:58;;;;;;;10.35;5.50;;;23.80;30.70;;;;;;6181359;28;80865;-64
2021/01/28 14:21:58;;;;;;;8.98;5.57;;;23.80;30.90;;;;;;6163241;28;80539;-63
2021/01/28 14:24:59;;;;;;;8.88;4.90;;;23.70;30.50;;;;;;6168483;28;80844;-64
2021/01/28 14:27:59;;;;;;;8.48;4.50;;;23.80;30.40;;;;;;6152599;28;80691;-64
2021/01/28 14:31:00;;;;;;;7.57;4.35;;;23.80;30.20;;;;;;6179684;28;80887;-66
2021/01/28 14:34:00;;;;;;;7.28;4.13;;;23.80;30.40;;;;;;6175222;28;80620;-65
2021/01/28 14:37:01;;;;;;;6.60;4.32;;;23.80;30.30;;;;;;6181741;28;80717;-63
2021/01/28 14:40:01;;;;;;;8.90;4.32;;;23.80;30.30;;;;;;6182113;28;80777;-66
2021/01/28 14:43:02;;;;;;;7.40;4.00;;;23.80;30.00;;;;;;6175509;28;80647;-65
2021/01/28 14:46:03;;;;;;;7.57;4.88;;;23.70;30.90;;;;;;6166480;28;81214;-64
2021/01/28 14:49:03;;;;;;;10.82;4.10;;;23.70;29.70;;;;;;6183408;28;81256;-63
2021/01/28 14:52:04;;;;;;;7.70;4.07;;;23.70;30.00;;;;;;6176246;28;81067;-65
2021/01/28 14:55:04;;;;;;;11.80;5.25;;;23.70;30.50;;;;;;6157876;28;82314;-64
2021/01/28 14:58:05;;;;;;;13.65;4.38;;;23.70;30.10;;;;;;6179154;28;80468;-63
2021/01/28 15:01:05;;;;;;;6.28;3.80;;;23.70;30.30;;;;;;6181663;28;81954;-62
2021/01/28 15:04:06;;;;;;;14.90;4.57;;;23.70;30.70;;;;;;6171691;28;80611;-63
2021/01/28 15:07:06;;;;;;;10.07;4.90;;;23.70;30.70;;;;;;6162317;28;81486;-63
2021/01/28 15:10:07;;;;;;;7.93;4.18;;;23.60;30.50;;;;;;6178401;27;80652;-63
2021/01/28 15:13:07;;;;;;;7.03;4.28;;;23.60;30.60;;;;;;6168250;28;80596;-64
2021/01/28 15:16:08;;;;;;;14.95;4.60;;;23.60;30.30;;;;;;6150441;28;83751;-64
2021/01/28 15:19:08;;;;;;;9.50;4.88;;;23.50;30.20;;;;;;6152616;28;80987;-65
2021/01/28 15:22:09;;;;;;;11.65;4.80;;;23.50;30.10;;;;;;6175212;27;80754;-64
2021/01/28 15:25:09;;;;;;;11.02;4.70;;;23.50;30.70;;;;;;6174272;28;81211;-64
2021/01/28 15:28:10;;;;;;;8.05;4.75;;;23.60;31.20;;;;;;6179474;27;83007;-64
2021/01/28 15:31:10;;;;;;;10.40;4.63;;;23.50;29.90;;;;;;6173030;27;80306;-66
2021/01/28 15:34:11;;;;;;;7.90;4.55;;;23.50;29.80;;;;;;6147390;28;80956;-63
2021/01/28 15:37:14;;;;;;;9.68;4.88;;;23.60;30.50;;;;;;6160801;28;80644;-63
2021/01/28 15:40:14;;;;;;;10.32;4.97;;;23.60;30.70;;;;;;6160096;28;80350;-63
2021/01/28 15:43:15;;;;;;;8.07;4.68;;;23.60;31.20;;;;;;6179649;28;81341;-64